Time;durP1;ratioP1;P1;durP2;ratioP2;P2;SDS_P1;SDS_P2;PMS_P1;PMS_P2;Temp;Humidity;BMP_temperature;BMP_pressure;BME280_temperature;BME280_humidity;BME280_pressure;Samples;Min_cycle;Max_cycle;Signal;HPM_P1;HPM_P2
2023/11/24 00:00:31;;;;;;;6.07;1.10;;;;;;;9.59;72.71;100735.53;5007445;28;20054;-42
2023/11/24 00:02:58;;;;;;;5.00;0.77;;;;;;;9.56;72.72;100730.31;5012034;28;20049;-44
2023/11/24 00:05:25;;;;;;;9.07;2.35;;;;;;;9.52;73.49;100725.09;5007368;28;20042;-45
2023/11/24 00:07:52;;;;;;;7.20;1.23;;;;;;;9.54;73.02;100730.28;5014378;28;20420;-47
2023/11/24 00:10:19;;;;;;;9.07;2.72;;;;;;;9.58;72.59;100728.59;5012668;28;20049;-49
2023/11/24 00:12:46;;;;;;;14.38;2.08;;;;;;;9.56;72.94;100727.72;4992328;28;20042;-49
2023/11/24 00:15:13;;;;;;;14.90;2.00;;;;;;;9.52;72.74;100722.50;5001274;28;20053;-48
2023/11/24 00:17:39;;;;;;;8.80;2.58;;;;;;;9.55;73.01;100718.22;5004799;28;20046;-42
2023/11/24 00:20:10;;;;;;;14.13;1.30;;;;;;;9.51;72.69;100723.38;5016094;28;20050;-47
2023/11/24 00:22:37;;;;;;;8.35;0.80;;;;;;;9.44;72.54;100737.06;5003058;28;20050;-44
2023/11/24 00:25:05;;;;;;;9.77;1.10;;;;;;;9.43;72.22;100734.44;5011716;28;20046;-44
2023/11/24 00:27:31;;;;;;;5.47;2.10;;;;;;;9.46;72.42;100740.50;5006838;28;20049;-54
2023/11/24 00:29:58;;;;;;;8.27;1.45;;;;;;;9.50;71.97;100726.78;5003680;28;20071;-51
2023/11/24 00:32:25;;;;;;;7.80;0.80;;;;;;;9.43;71.78;100725.00;5010381;28;20042;-48
2023/11/24 00:34:51;;;;;;;6.68;0.95;;;;;;;9.41;71.98;100726.66;5010488;28;20049;-52
2023/11/24 00:37:18;;;;;;;9.73;1.63;;;;;;;9.37;71.48;100724.91;5009096;28;20053;-47
2023/11/24 00:39:49;;;;;;;10.70;1.90;;;;;;;9.40;71.18;100724.94;5007355;28;20483;-50
2023/11/24 00:42:16;;;;;;;11.45;1.50;;;;;;;9.37;70.85;100722.31;5004948;28;20141;-48
2023/11/24 00:44:43;;;;;;;16.33;1.90;;;;;;;9.38;71.71;100724.91;5006305;28;20050;-45
2023/11/24 00:47:10;;;;;;;17.27;1.80;;;;;;;9.37;70.89;100719.72;5007443;28;20042;-50
2023/11/24 00:49:36;;;;;;;9.18;1.80;;;;;;;9.36;71.32;100715.41;5011919;28;20041;-48
2023/11/24 00:52:03;;;;;;;15.18;1.52;;;;;;;9.35;70.89;100705.91;5011080;28;20050;-51
2023/11/24 00:54:30;;;;;;;7.90;1.58;;;;;;;9.37;70.88;100706.78;5007769;28;20070;-45
2023/11/24 00:56:56;;;;;;;9.05;1.45;;;;;;;9.30;70.50;100707.56;5004881;28;20403;-47
2023/11/24 00:59:23;;;;;;;10.32;1.98;;;;;;;9.28;69.78;100709.28;5004276;28;20045;-48
2023/11/24 01:01:49;;;;;;;13.25;2.25;;;;;;;9.30;70.27;100717.91;5011426;28;20042;-47
2023/11/24 01:04:16;;;;;;;8.73;1.73;;;;;;;9.32;70.23;100717.06;5007281;28;20046;-51
2023/11/24 01:06:43;;;;;;;15.80;3.72;;;;;;;9.34;70.72;100720.56;5013161;28;20064;-52
2023/11/24 01:09:10;;;;;;;10.55;1.77;;;;;;;9.36;70.44;100724.00;5010347;28;20100;-47
2023/11/24 01:11:37;;;;;;;20.02;2.05;;;;;;;9.37;70.33;100714.56;5006323;28;20054;-49
2023/11/24 01:14:04;;;;;;;8.38;1.83;;;;;;;9.37;70.74;100699.03;4987568;28;20045;-51
2023/11/24 01:16:31;;;;;;;7.13;1.52;;;;;;;9.34;70.17;100693.81;4988796;28;20138;-54
2023/11/24 01:18:59;;;;;;;8.80;1.17;;;;;;;9.36;69.90;100692.16;5005784;28;20065;-47
2023/11/24 01:21:26;;;;;;;9.77;2.38;;;;;;;9.35;70.15;100700.72;5014244;28;20049;-50
2023/11/24 01:23:53;;;;;;;6.03;1.10;;;;;;;9.33;69.88;100702.44;5014040;28;20510;-46
2023/11/24 01:26:21;;;;;;;6.88;1.00;;;;;;;9.28;70.40;100706.69;5016136;28;20072;-52
2023/11/24 01:28:48;;;;;;;7.60;1.58;;;;;;;9.31;70.48;100701.53;5005744;28;20050;-46
2023/11/24 01:31:15;;;;;;;8.75;1.55;;;;;;;9.31;70.15;100689.50;5012448;28;20065;-51
2023/11/24 01:33:41;;;;;;;5.95;1.30;;;;;;;9.24;69.88;100693.72;5012356;28;20077;-49
2023/11/24 01:36:08;;;;;;;11.07;1.23;;;;;;;9.22;69.84;100692.81;5016682;28;20041;-50
2023/11/24 01:38:35;;;;;;;11.40;1.83;;;;;;;9.24;69.81;100698.88;5007200;28;20046;-49
2023/11/24 01:41:02;;;;;;;12.63;1.98;;;;;;;9.26;69.88;100702.34;5006478;28;20053;-50
2023/11/24 01:43:29;;;;;;;14.93;1.70;;;;;;;9.25;70.19;100705.78;5004138;28;20104;-47
2023/11/24 01:45:55;;;;;;;14.15;2.10;;;;;;;9.25;69.75;100705.78;5013064;28;20045;-47
2023/11/24 01:48:22;;;;;;;10.55;1.65;;;;;;;9.24;69.94;100703.19;5007355;28;20092;-50
2023/11/24 01:50:50;;;;;;;8.90;1.10;;;;;;;9.18;69.59;100697.94;5012111;28;20088;-48
2023/11/24 01:53:17;;;;;;;13.45;1.95;;;;;;;9.18;69.55;100703.97;5014918;28;20058;-47
2023/11/24 01:55:43;;;;;;;11.88;1.52;;;;;;;9.16;69.46;100690.16;5011210;28;20513;-56
2023/11/24 01:58:10;;;;;;;9.25;1.35;;;;;;;9.13;69.19;100690.97;5009023;28;20061;-47
2023/11/24 02:00:38;;;;;;;8.25;2.08;;;;;;;9.10;69.03;100679.72;5007502;28;20538;-48
2023/11/24 02:03:05;;;;;;;7.78;1.05;;;;;;;9.10;69.13;100695.25;5000620;28;20053;-50
2023/11/24 02:05:32;;;;;;;9.93;1.73;;;;;;;9.08;68.94;100690.03;5006645;28;20446;-49
2023/11/24 02:07:59;;;;;;;7.75;0.82;;;;;;;9.07;68.81;100696.06;5008232;28;20670;-48
2023/11/24 02:10:26;;;;;;;9.05;2.30;;;;;;;9.10;68.92;100706.47;5011253;28;20062;-50
2023/11/24 02:12:52;;;;;;;11.23;1.00;;;;;;;9.07;68.91;100702.94;5004949;28;20054;-48
2023/11/24 02:15:19;;;;;;;9.48;0.95;;;;;;;9.07;69.15;100705.53;5001633;28;20066;-50
2023/11/24 02:17:46;;;;;;;7.88;1.17;;;;;;;9.02;69.30;100697.69;5007787;28;20050;-46
2023/11/24 02:20:15;;;;;;;9.15;3.08;;;;;;;8.98;69.02;100694.22;5009133;28;20080;-48
2023/11/24 02:22:42;;;;;;;6.20;2.78;;;;;;;8.98;69.02;100704.56;5013379;28;20050;-41
2023/11/24 02:25:10;;;;;;;10.98;1.27;;;;;;;8.99;69.43;100702.84;4986140;28;20058;-50
2023/11/24 02:27:37;;;;;;;5.72;2.47;;;;;;;8.92;68.90;100698.44;5007122;28;20056;-47
2023/11/24 02:30:05;;;;;;;13.50;2.70;;;;;;;8.87;69.46;100703.53;5005322;28;20100;-45
2023/11/24 02:32:33;;;;;;;9.63;1.55;;;;;;;8.82;69.32;100698.28;5008657;28;20435;-47
2023/11/24 02:35:01;;;;;;;13.70;2.20;;;;;;;8.80;69.31;100687.06;5009815;28;20049;-47
2023/11/24 02:37:27;;;;;;;6.57;2.85;;;;;;;8.70;69.95;100691.22;5005795;28;20061;-46
2023/11/24 02:39:54;;;;;;;11.38;1.45;;;;;;;8.77;69.63;100680.97;5008338;28;20049;-44
2023/11/24 02:42:21;;;;;;;8.65;1.30;;;;;;;8.80;70.13;100666.41;5009824;28;20050;-48
2023/11/24 02:44:47;;;;;;;9.15;2.08;;;;;;;8.79;69.71;100668.97;5008473;28;20053;-46
2023/11/24 02:47:15;;;;;;;7.15;0.70;;;;;;;8.68;69.76;100684.31;5001695;28;20056;-52
2023/11/24 02:49:42;;;;;;;10.50;4.35;;;;;;;8.71;69.24;100676.59;5013906;28;20506;-53
2023/11/24 02:52:09;;;;;;;12.45;1.05;;;;;;;8.73;69.40;100687.81;5007688;28;20429;-49
2023/11/24 02:54:36;;;;;;;7.88;1.60;;;;;;;8.73;69.95;100690.41;5006976;28;20046;-48
2023/11/24 02:57:03;;;;;;;7.55;1.63;;;;;;;8.72;70.04;100681.78;5000857;28;20046;-51
2023/11/24 02:59:30;;;;;;;6.35;2.13;;;;;;;8.70;69.99;100673.16;5005439;28;20049;-46
2023/11/24 03:01:56;;;;;;;7.70;1.15;;;;;;;8.67;69.24;100660.19;5012330;28;20050;-52
2023/11/24 03:04:23;;;;;;;6.75;0.90;;;;;;;8.64;69.97;100661.88;5007923;28;20137;-53
2023/11/24 03:06:50;;;;;;;9.35;1.25;;;;;;;8.58;69.52;100665.22;5003020;28;20060;-47
2023/11/24 03:09:22;;;;;;;9.90;2.50;;;;;;;8.56;69.78;100651.41;5006066;28;20056;-51
2023/11/24 03:11:50;;;;;;;7.70;0.90;;;;;;;8.52;70.39;100654.75;5007850;28;20060;-47
2023/11/24 03:14:20;;;;;;;12.55;2.80;;;;;;;8.49;70.04;100656.44;4993825;28;20517;-45
2023/11/24 03:16:47;;;;;;;4.88;1.38;;;;;;;8.48;69.93;100659.88;5007272;28;20057;-50
2023/11/24 03:19:14;;;;;;;11.02;1.23;;;;;;;8.52;70.29;100649.59;5002385;28;20054;-48
2023/11/24 03:21:41;;;;;;;8.50;2.40;;;;;;;8.45;69.97;100649.50;5013646;28;20060;-45
2023/11/24 03:24:08;;;;;;;9.77;2.75;;;;;;;8.45;70.13;100664.97;5010901;28;20525;-46
2023/11/24 03:26:36;;;;;;;3.50;0.32;;;;;;;8.40;70.26;100660.59;5005980;28;20057;-45
2023/11/24 03:29:03;;;;;;;6.95;2.33;;;;;;;8.44;70.05;100641.75;5010368;28;20181;-44
2023/11/24 03:31:30;;;;;;;7.07;0.80;;;;;;;8.46;70.03;100638.34;5013329;28;20045;-47
2023/11/24 03:33:57;;;;;;;7.82;0.98;;;;;;;8.43;69.63;100646.03;5005422;28;20049;-45
2023/11/24 03:36:24;;;;;;;2.78;1.02;;;;;;;8.40;69.80;100660.59;5010486;28;20050;-48
2023/11/24 03:38:51;;;;;;;13.20;2.22;;;;;;;8.39;70.24;100670.06;5001993;28;20141;-47
2023/11/24 03:41:17;;;;;;;6.45;1.80;;;;;;;8.37;70.17;100661.41;5006611;28;20419;-45
2023/11/24 03:43:44;;;;;;;3.72;0.80;;;;;;;8.33;70.70;100650.19;5002918;28;20046;-50
2023/11/24 03:46:11;;;;;;;5.95;2.22;;;;;;;8.34;70.09;100651.03;5010417;28;20053;-47
2023/11/24 03:48:38;;;;;;;7.28;3.13;;;;;;;8.35;70.64;100643.31;5008381;28;20058;-46
2023/11/24 03:51:06;;;;;;;13.63;0.80;;;;;;;8.31;70.31;100645.84;5007766;28;20077;-53
2023/11/24 03:53:33;;;;;;;4.78;0.68;;;;;;;8.28;70.21;100648.38;5010644;28;20065;-53
2023/11/24 03:56:01;;;;;;;3.88;2.17;;;;;;;8.31;70.37;100646.69;5010408;28;20053;-49
2023/11/24 03:58:28;;;;;;;7.30;2.20;;;;;;;8.30;70.09;100639.81;4987554;28;20066;-52
2023/11/24 04:00:55;;;;;;;7.10;3.03;;;;;;;8.31;70.05;100640.69;5010268;28;20506;-52
2023/11/24 04:03:21;;;;;;;6.95;1.00;;;;;;;8.32;69.51;100638.13;5010114;28;20050;-44
2023/11/24 04:05:48;;;;;;;3.72;0.85;;;;;;;8.35;69.70;100626.97;5014153;28;20053;-44
2023/11/24 04:08:15;;;;;;;8.45;0.80;;;;;;;8.31;69.61;100607.13;5012160;28;20049;-47
2023/11/24 04:10:42;;;;;;;5.30;1.13;;;;;;;8.31;68.89;100614.88;5012513;28;20050;-50
2023/11/24 04:13:08;;;;;;;6.82;2.55;;;;;;;8.31;69.35;100635.53;5019890;28;20058;-48
2023/11/24 04:15:35;;;;;;;13.57;3.35;;;;;;;8.29;68.82;100647.50;5023341;28;20064;-47
2023/11/24 04:18:02;;;;;;;11.80;1.65;;;;;;;8.32;68.63;100637.25;5015578;28;20124;-51
2023/11/24 04:20:30;;;;;;;5.20;0.80;;;;;;;8.32;68.53;100637.25;5016117;28;20081;-48
2023/11/24 04:22:57;;;;;;;6.28;1.20;;;;;;;8.32;68.71;100634.66;5016965;28;20046;-53
2023/11/24 04:25:23;;;;;;;8.30;1.67;;;;;;;8.28;68.72;100626.00;5012729;28;20050;-47
2023/11/24 04:28:00;;;;;;;8.65;2.67;;;;;;;8.31;68.52;100627.78;5011031;28;20046;-48
2023/11/24 04:30:27;;;;;;;6.85;2.45;;;;;;;8.31;68.59;100620.88;5016546;28;20511;-46
2023/11/24 04:32:53;;;;;;;4.75;1.75;;;;;;;8.34;69.05;100636.41;5005028;28;20450;-45
2023/11/24 04:35:20;;;;;;;7.55;3.20;;;;;;;8.31;68.20;100630.34;5007887;28;20038;-51
2023/11/24 04:37:48;;;;;;;6.75;1.10;;;;;;;8.31;69.04;100630.34;5014276;28;20049;-46
2023/11/24 04:40:15;;;;;;;6.75;0.70;;;;;;;8.31;68.64;100633.78;5015110;28;20061;-52
2023/11/24 04:42:41;;;;;;;14.27;0.80;;;;;;;8.34;69.08;100640.69;5018789;28;20482;-47
2023/11/24 04:45:11;;;;;;;5.72;0.70;;;;;;;8.30;68.54;100631.19;5018348;28;20078;-48
2023/11/24 04:47:38;;;;;;;4.60;1.88;;;;;;;8.35;68.64;100627.81;5010247;28;20076;-49
2023/11/24 04:50:07;;;;;;;9.18;0.77;;;;;;;8.35;68.81;100638.16;5010966;28;20068;-52
2023/11/24 04:52:34;;;;;;;3.72;1.88;;;;;;;8.29;68.93;100644.94;5015633;28;20052;-48
2023/11/24 04:55:03;;;;;;;5.68;0.73;;;;;;;8.29;68.32;100643.22;5012779;28;20076;-51
2023/11/24 04:57:31;;;;;;;6.88;1.42;;;;;;;8.33;68.72;100644.13;5013278;28;20049;-49
2023/11/24 04:59:58;;;;;;;10.50;1.15;;;;;;;8.32;67.92;100637.25;5008256;28;20434;-47
2023/11/24 05:02:24;;;;;;;11.00;0.82;;;;;;;8.30;68.83;100636.34;4990438;28;20053;-48
2023/11/24 05:04:51;;;;;;;7.85;3.88;;;;;;;8.33;68.26;100644.13;5012786;28;20061;-46
2023/11/24 05:07:19;;;;;;;4.35;0.52;;;;;;;8.28;68.50;100641.47;5008350;28;20073;-48
2023/11/24 05:09:46;;;;;;;8.70;1.40;;;;;;;8.26;68.13;100638.00;5014379;28;20042;-47
2023/11/24 05:12:12;;;;;;;3.22;1.75;;;;;;;8.27;68.30;100650.06;5016073;28;20095;-43
2023/11/24 05:14:39;;;;;;;6.95;0.75;;;;;;;8.28;68.08;100656.09;5018554;28;20053;-49
2023/11/24 05:17:06;;;;;;;6.68;1.20;;;;;;;8.27;68.77;100656.97;5016112;28;20042;-47
2023/11/24 05:19:33;;;;;;;8.45;1.30;;;;;;;8.27;68.38;100659.53;5010787;28;20471;-51
2023/11/24 05:22:00;;;;;;;8.10;2.17;;;;;;;8.26;68.32;100655.19;5012245;28;20077;-44
2023/11/24 05:24:26;;;;;;;5.68;0.85;;;;;;;8.26;68.78;100650.03;5005839;28;20056;-52
2023/11/24 05:26:53;;;;;;;6.97;2.90;;;;;;;8.25;68.15;100656.06;5011547;28;20046;-49
2023/11/24 05:29:21;;;;;;;3.53;2.17;;;;;;;8.23;68.86;100651.75;5013327;28;20073;-45
2023/11/24 05:31:50;;;;;;;8.70;2.72;;;;;;;8.19;69.05;100646.50;5012386;28;20046;-47
2023/11/24 05:34:16;;;;;;;2.35;0.65;;;;;;;8.10;69.03;100647.19;5005376;28;20082;-43
2023/11/24 05:36:44;;;;;;;5.25;0.77;;;;;;;8.10;69.03;100657.53;5007194;28;20054;-44
2023/11/24 05:39:11;;;;;;;4.78;0.70;;;;;;;8.09;69.43;100653.22;5003906;28;20042;-45
2023/11/24 05:41:38;;;;;;;4.53;2.17;;;;;;;8.00;69.23;100651.34;5011035;28;20042;-49
2023/11/24 05:44:05;;;;;;;2.35;1.83;;;;;;;7.89;69.75;100669.22;5008325;28;20073;-46
2023/11/24 05:46:32;;;;;;;5.18;0.70;;;;;;;7.84;69.74;100676.00;5006601;28;20070;-47
2023/11/24 05:48:58;;;;;;;3.85;1.92;;;;;;;7.76;70.31;100672.38;5017453;28;20041;-47
2023/11/24 05:51:25;;;;;;;2.90;1.67;;;;;;;7.78;70.33;100670.72;5006631;28;20088;-49
2023/11/24 05:53:52;;;;;;;5.28;0.85;;;;;;;7.76;70.37;100662.94;5013110;28;20054;-45
2023/11/24 05:56:19;;;;;;;1.63;0.40;;;;;;;7.77;70.53;100658.66;5012940;28;20060;-47
2023/11/24 05:58:46;;;;;;;14.60;1.35;;;;;;;7.77;70.91;100661.25;5012878;28;20045;-49
2023/11/24 06:01:13;;;;;;;7.68;2.40;;;;;;;7.74;70.49;100653.44;5009497;28;20045;-49
2023/11/24 06:03:40;;;;;;;3.53;2.63;;;;;;;7.77;70.87;100648.34;5013503;28;20053;-50
2023/11/24 06:06:07;;;;;;;7.93;1.30;;;;;;;7.75;70.05;100655.19;5012428;28;20331;-50
2023/11/24 06:08:33;;;;;;;7.38;1.92;;;;;;;7.77;70.31;100658.66;5011920;28;20750;-45
2023/11/24 06:11:00;;;;;;;7.20;1.98;;;;;;;7.77;70.15;100658.66;5019420;28;20042;-47
2023/11/24 06:13:26;;;;;;;5.00;0.70;;;;;;;7.77;70.11;100656.09;5015441;28;20055;-50
2023/11/24 06:15:54;;;;;;;5.60;2.40;;;;;;;7.77;70.03;100651.78;5015869;28;20042;-46
2023/11/24 06:18:21;;;;;;;3.47;2.20;;;;;;;7.78;70.17;100647.50;5014594;28;20054;-50
2023/11/24 06:20:48;;;;;;;6.95;1.02;;;;;;;7.74;70.13;100650.88;5016529;28;20367;-52
2023/11/24 06:23:15;;;;;;;8.85;2.15;;;;;;;7.77;69.58;100648.34;5014023;28;20507;-49
2023/11/24 06:25:42;;;;;;;2.70;2.15;;;;;;;7.72;69.83;100646.56;5010106;28;20052;-47
2023/11/24 06:28:08;;;;;;;10.45;2.42;;;;;;;7.74;69.98;100643.13;5008975;28;20049;-49
2023/11/24 06:30:35;;;;;;;9.30;2.13;;;;;;;7.75;70.36;100650.03;4996856;28;20104;-48
2023/11/24 06:33:02;;;;;;;3.03;0.43;;;;;;;7.68;70.08;100649.94;5012610;28;20796;-49
2023/11/24 06:35:29;;;;;;;6.32;2.08;;;;;;;7.70;69.59;100653.38;5018830;28;20050;-47
2023/11/24 06:37:56;;;;;;;7.65;1.85;;;;;;;7.74;70.01;100648.28;5008312;28;20353;-52
2023/11/24 06:40:24;;;;;;;5.30;0.82;;;;;;;7.67;69.77;100642.16;5006041;28;20054;-44
2023/11/24 06:42:50;;;;;;;13.57;1.20;;;;;;;7.71;69.38;100639.66;5005669;28;20057;-47
2023/11/24 06:45:17;;;;;;;4.93;1.02;;;;;;;7.72;69.42;100630.22;5010191;28;20136;-48
2023/11/24 06:47:48;;;;;;;4.50;1.08;;;;;;;7.71;68.35;100639.66;5006139;28;20387;-48
2023/11/24 06:50:15;;;;;;;2.35;0.40;;;;;;;7.68;68.92;100639.63;5014198;28;20060;-43
2023/11/24 06:52:42;;;;;;;4.03;1.67;;;;;;;7.66;67.97;100641.28;5014135;28;20056;-51
2023/11/24 06:55:11;;;;;;;6.53;1.75;;;;;;;7.64;68.98;100648.13;5010022;28;20053;-50
2023/11/24 06:57:38;;;;;;;4.72;1.92;;;;;;;7.65;68.52;100639.56;5006375;28;20058;-50
2023/11/24 07:00:05;;;;;;;2.35;0.95;;;;;;;7.58;67.69;100640.28;5017763;28;20049;-45
2023/11/24 07:02:33;;;;;;;3.13;1.08;;;;;;;7.59;67.97;100635.16;5010057;28;20464;-44
2023/11/24 07:05:03;;;;;;;1.17;0.40;;;;;;;7.55;66.91;100627.31;5014079;28;20059;-51
2023/11/24 07:07:30;;;;;;;3.75;0.60;;;;;;;7.60;67.68;100641.16;5008100;28;20054;-48
2023/11/24 07:09:56;;;;;;;2.88;2.00;;;;;;;7.57;66.85;100633.38;5012599;28;20050;-50
2023/11/24 07:12:23;;;;;;;5.22;0.80;;;;;;;7.63;67.50;100641.22;4992935;28;20133;-47
2023/11/24 07:14:50;;;;;;;3.22;0.55;;;;;;;7.61;66.00;100622.28;5005032;28;20038;-48
2023/11/24 07:17:16;;;;;;;4.13;1.85;;;;;;;7.42;65.90;100629.66;5018547;28;20049;-47
2023/11/24 07:19:43;;;;;;;4.15;0.43;;;;;;;7.58;66.29;100642.84;5005366;28;20050;-42
2023/11/24 07:22:10;;;;;;;3.50;2.85;;;;;;;7.49;64.31;100640.09;5006498;28;20073;-49
2023/11/24 07:24:39;;;;;;;6.55;0.75;;;;;;;7.53;65.57;100650.47;5003225;28;20060;-47
2023/11/24 07:27:06;;;;;;;3.80;0.47;;;;;;;7.49;64.74;100648.69;5012181;28;20475;-50
2023/11/24 07:29:33;;;;;;;3.28;0.30;;;;;;;7.56;64.65;100654.81;5005013;28;20046;-49
2023/11/24 07:32:02;;;;;;;2.80;1.67;;;;;;;7.57;65.51;100648.84;5010106;28;20060;-50
2023/11/24 07:34:31;;;;;;;2.55;0.63;;;;;;;7.61;65.11;100658.38;5002606;28;20053;-43
2023/11/24 07:37:00;;;;;;;1.75;0.82;;;;;;;7.53;65.74;100649.63;5006952;28;20045;-50
2023/11/24 07:39:29;;;;;;;1.45;0.47;;;;;;;7.53;65.07;100652.22;5004699;28;20052;-49
2023/11/24 07:41:58;;;;;;;2.60;0.65;;;;;;;7.56;65.80;100654.81;4989405;28;20092;-51
2023/11/24 07:44:29;;;;;;;4.47;2.50;;;;;;;7.56;65.47;100654.81;4985312;28;20545;-44
2023/11/24 07:46:55;;;;;;;1.73;1.52;;;;;;;7.45;64.94;100637.47;4996830;28;20101;-47
2023/11/24 07:49:22;;;;;;;2.28;0.57;;;;;;;7.42;64.48;100646.81;5008156;28;20073;-45
2023/11/24 07:51:49;;;;;;;4.57;2.25;;;;;;;7.49;64.29;100643.53;5004588;28;20058;-48
2023/11/24 07:54:16;;;;;;;7.70;2.22;;;;;;;7.44;64.32;100627.97;5005511;28;20080;-49
2023/11/24 07:56:43;;;;;;;6.10;0.60;;;;;;;7.34;64.68;100633.81;5005660;28;20046;-50
2023/11/24 07:59:11;;;;;;;3.10;1.52;;;;;;;7.34;64.64;100636.38;5004588;28;20457;-49
2023/11/24 08:01:39;;;;;;;2.95;2.05;;;;;;;7.36;64.03;100621.78;5005832;28;20057;-47
2023/11/24 08:04:07;;;;;;;2.35;1.85;;;;;;;7.38;64.63;100620.13;5000147;28;20495;-42
2023/11/24 08:06:34;;;;;;;1.08;0.88;;;;;;;7.37;62.65;100628.72;5001568;28;20169;-47
2023/11/24 08:09:03;;;;;;;4.82;2.53;;;;;;;7.28;62.89;100619.09;5007903;28;20487;-46
2023/11/24 08:11:32;;;;;;;2.28;1.58;;;;;;;7.35;63.20;100629.50;5002815;28;20053;-45
2023/11/24 08:13:59;;;;;;;5.57;0.90;;;;;;;7.38;63.03;100643.31;4989497;28;20042;-52
2023/11/24 08:16:26;;;;;;;2.13;0.70;;;;;;;7.32;63.46;100640.63;4986731;28;20141;-48
2023/11/24 08:18:53;;;;;;;1.60;1.42;;;;;;;7.32;64.08;100645.78;5000118;28;20054;-47
2023/11/24 08:21:19;;;;;;;2.47;1.83;;;;;;;7.30;63.29;100655.19;5001600;28;20055;-49
2023/11/24 08:23:47;;;;;;;4.13;0.52;;;;;;;7.39;63.77;100650.22;5005922;28;20050;-42
2023/11/24 08:26:15;;;;;;;4.88;2.83;;;;;;;7.44;62.99;100656.31;4998677;28;20042;-48
2023/11/24 08:28:43;;;;;;;2.78;1.83;;;;;;;7.30;61.61;100644.88;5007526;28;20100;-43
2023/11/24 08:31:16;;;;;;;2.33;1.98;;;;;;;7.24;61.43;100629.28;5001862;28;20050;-47
2023/11/24 08:33:43;;;;;;;2.08;1.90;;;;;;;7.18;60.74;100632.59;5003714;28;20053;-48
2023/11/24 08:36:12;;;;;;;1.80;1.70;;;;;;;7.11;60.72;100616.16;5002008;28;20558;-48
2023/11/24 08:38:39;;;;;;;1.58;1.33;;;;;;;7.13;60.12;100629.94;5004171;28;20046;-45
2023/11/24 08:41:10;;;;;;;3.58;3.13;;;;;;;7.12;60.89;100638.50;4989681;28;20517;-51
2023/11/24 08:43:40;;;;;;;6.53;2.33;;;;;;;7.13;61.45;100627.34;5004575;28;20063;-45
2023/11/24 08:46:08;;;;;;;1.60;1.50;;;;;;;7.13;60.99;100640.22;4998605;28;20101;-42
2023/11/24 08:48:36;;;;;;;3.38;1.95;;;;;;;7.11;61.35;100636.78;5004946;28;20491;-45
2023/11/24 08:51:04;;;;;;;1.73;1.63;;;;;;;7.19;61.57;100640.38;5005944;28;20470;-53
2023/11/24 08:53:33;;;;;;;0.60;0.20;;;;;;;7.22;62.60;100654.16;5006021;28;20553;-46
2023/11/24 08:56:00;;;;;;;3.28;1.77;;;;;;;7.21;62.81;100661.03;5007606;28;20594;-47
2023/11/24 08:58:27;;;;;;;1.98;0.47;;;;;;;7.28;61.88;100655.16;5000375;28;20053;-48
2023/11/24 09:00:54;;;;;;;4.53;2.47;;;;;;;7.25;62.67;100661.94;4997923;28;20050;-46
2023/11/24 09:03:24;;;;;;;1.83;1.73;;;;;;;7.06;62.17;100653.84;5004579;28;20057;-48
2023/11/24 09:05:52;;;;;;;2.63;2.42;;;;;;;7.06;61.12;100654.69;5008378;28;20042;-44
2023/11/24 09:08:19;;;;;;;2.33;2.22;;;;;;;7.14;61.79;100657.44;5007954;28;20132;-48
2023/11/24 09:10:46;;;;;;;7.85;0.68;;;;;;;7.10;61.58;100655.66;4994312;28;20426;-51
2023/11/24 09:13:13;;;;;;;3.22;1.80;;;;;;;7.12;62.26;100660.84;5010804;28;20082;-45
2023/11/24 09:15:41;;;;;;;2.08;1.88;;;;;;;7.13;61.95;100673.72;5021696;28;20514;-51
2023/11/24 09:18:09;;;;;;;5.65;2.92;;;;;;;7.12;62.77;100664.25;5012074;28;20046;-51
2023/11/24 09:20:37;;;;;;;5.40;0.73;;;;;;;7.12;62.83;100669.41;5005452;28;20160;-46
2023/11/24 09:23:05;;;;;;;3.17;0.73;;;;;;;7.19;63.33;100670.41;5001013;28;20494;-47
2023/11/24 09:25:32;;;;;;;2.10;2.00;;;;;;;7.11;62.63;100666.81;4989298;28;20042;-44
2023/11/24 09:27:59;;;;;;;2.67;1.60;;;;;;;7.11;61.71;100672.84;5006742;28;20054;-51
2023/11/24 09:30:26;;;;;;;4.38;3.05;;;;;;;7.04;62.25;100671.84;5008021;28;20050;-50
2023/11/24 09:32:54;;;;;;;2.10;2.00;;;;;;;7.06;60.35;100675.31;5000361;28;20498;-46
2023/11/24 09:35:23;;;;;;;4.53;1.73;;;;;;;7.04;62.01;100665.81;5006471;28;20449;-44
2023/11/24 09:37:52;;;;;;;2.55;2.40;;;;;;;7.67;62.14;100688.56;5002473;28;20050;-48
2023/11/24 09:40:22;;;;;;;4.32;2.17;;;;;;;8.72;60.70;100684.38;5004123;28;20058;-44
2023/11/24 09:42:50;;;;;;;4.05;2.40;;;;;;;9.71;59.64;100678.75;5004313;28;20058;-45
2023/11/24 09:45:19;;;;;;;4.13;0.65;;;;;;;10.44;57.85;100680.28;5004728;28;20092;-47
2023/11/24 09:47:51;;;;;;;2.53;2.08;;;;;;;11.27;56.40;100673.91;5012106;28;20453;-49
2023/11/24 09:50:24;;;;;;;3.08;0.75;;;;;;;11.51;53.05;100673.16;5011440;28;20050;-47
2023/11/24 09:52:54;;;;;;;5.45;1.60;;;;;;;11.91;51.56;100681.91;5007551;28;20575;-45
2023/11/24 09:55:22;;;;;;;2.15;0.47;;;;;;;12.25;50.83;100676.78;5013836;28;20046;-47
2023/11/24 09:57:53;;;;;;;1.77;0.40;;;;;;;12.16;48.84;100671.59;5006036;28;20132;-44
2023/11/24 10:00:19;;;;;;;2.42;1.77;;;;;;;11.74;49.08;100669.75;5010539;28;20050;-47
2023/11/24 10:02:47;;;;;;;1.58;0.70;;;;;;;10.95;48.19;100678.09;5003367;28;20053;-50
2023/11/24 10:05:19;;;;;;;0.95;0.50;;;;;;;10.47;49.34;100683.78;5010473;28;20076;-43
2023/11/24 10:07:47;;;;;;;1.00;0.30;;;;;;;9.87;50.35;100699.63;5005975;28;20061;-45
2023/11/24 10:10:23;;;;;;;0.98;0.30;;;;;;;9.45;51.01;100697.41;5009185;28;20057;-47
2023/11/24 10:12:52;;;;;;;0.65;0.60;;;;;;;9.22;51.39;100697.13;5008992;28;20424;-50
2023/11/24 10:15:21;;;;;;;1.42;0.40;;;;;;;8.80;51.98;100706.88;5016749;28;20072;-48
2023/11/24 10:17:48;;;;;;;0.47;0.30;;;;;;;8.67;53.01;100711.84;4983233;28;20058;-44
2023/11/24 10:20:18;;;;;;;2.25;0.77;;;;;;;8.59;52.64;100704.00;5003028;28;20042;-44
2023/11/24 10:22:49;;;;;;;2.53;1.67;;;;;;;8.48;53.04;100708.94;5011838;28;20056;-42
2023/11/24 10:25:21;;;;;;;2.58;1.42;;;;;;;8.27;52.81;100722.34;5012492;28;20053;-48
2023/11/24 10:27:48;;;;;;;3.47;2.28;;;;;;;8.26;53.43;100730.03;5004788;28;20181;-49
2023/11/24 10:30:18;;;;;;;0.88;0.60;;;;;;;7.95;53.49;100726.09;5016458;28;20199;-48
2023/11/24 10:32:48;;;;;;;3.30;2.20;;;;;;;7.81;53.40;100727.53;5008854;28;20060;-52
2023/11/24 10:35:15;;;;;;;12.95;2.60;;;;;;;7.80;52.93;100730.94;5011524;28;20057;-50
2023/11/24 10:37:41;;;;;;;3.10;0.60;;;;;;;7.80;53.86;100738.69;5017646;28;20053;-47
2023/11/24 10:40:13;;;;;;;0.35;0.35;;;;;;;7.69;53.88;100739.31;5006533;28;20391;-43
2023/11/24 10:42:47;;;;;;;1.92;1.83;;;;;;;7.58;53.95;100741.69;5020236;28;20515;-52
2023/11/24 10:45:20;;;;;;;2.25;0.68;;;;;;;7.49;54.28;100745.78;5014297;28;20053;-51
2023/11/24 10:50:36;;;;;;;1.33;0.35;;;;;;;7.46;54.28;100736.25;5025366;27;20410;-44
2023/11/24 10:53:31;;;;;;;0.68;0.68;;;;;;;7.29;53.51;100734.19;5000638;28;20495;-50
2023/11/24 10:55:59;;;;;;;0.65;0.57;;;;;;;7.22;54.35;100726.31;5021253;28;20482;-44
2023/11/24 10:58:26;;;;;;;1.33;0.28;;;;;;;7.14;54.34;100733.84;5001247;28;20479;-46
2023/11/24 11:00:53;;;;;;;0.65;0.65;;;;;;;7.27;54.51;100724.69;5002197;28;20069;-51
2023/11/24 11:03:20;;;;;;;1.05;0.73;;;;;;;7.28;53.55;100710.97;5004407;28;20111;-48
2023/11/24 11:08:39;;;;;;;2.38;2.17;;;;;;;7.56;54.65;100701.22;5082997;27;20398;-45
2023/11/24 11:13:45;;;;;;;3.58;0.40;;;;;;;7.65;55.66;100698.84;5033235;27;20410;-47
2023/11/24 11:16:12;;;;;;;0.57;0.30;;;;;;;7.60;54.36;100697.88;4999184;28;20050;-47
2023/11/24 11:18:39;;;;;;;2.00;0.40;;;;;;;7.65;53.71;100704.00;4996769;28;20626;-52
2023/11/24 11:21:30;;;;;;;1.10;0.60;;;;;;;7.61;52.96;100707.38;5002314;28;20049;-42
2023/11/24 11:23:57;;;;;;;3.25;0.60;;;;;;;7.79;54.81;100700.81;4998647;28;20058;-45
2023/11/24 11:26:45;;;;;;;0.75;0.75;;;;;;;8.13;54.08;100698.88;5005124;28;20050;-48
2023/11/24 11:29:19;;;;;;;0.50;0.50;;;;;;;8.17;52.26;100705.81;4993104;28;20050;-49
2023/11/24 11:31:50;;;;;;;0.65;0.60;;;;;;;7.93;51.29;100691.63;5027272;28;20057;-47
2023/11/24 11:34:19;;;;;;;0.93;0.60;;;;;;;7.69;51.32;100702.34;4998251;28;20060;-41
2023/11/24 11:39:29;;;;;;;1.10;0.68;;;;;;;7.95;51.49;100689.97;5021871;27;20414;-49
2023/11/24 11:41:56;;;;;;;1.75;0.30;;;;;;;7.57;51.77;100697.84;4993286;28;20069;-44
2023/11/24 11:44:33;;;;;;;2.15;1.95;;;;;;;7.46;52.01;100683.00;5003295;28;20081;-50